Time;durP1;ratioP1;P1;durP2;ratioP2;P2;SDS_P1;SDS_P2;PMS_P1;PMS_P2;Temp;Humidity;BMP_temperature;BMP_pressure;BME280_temperature;BME280_humidity;BME280_pressure;Samples;Min_cycle;Max_cycle;Signal;HPM_P1;HPM_P2
2021/09/09 00:01:14;;;;;;;15.65;10.10;;;14.90;99.90;;;;;;5042286;28;20078;-72
2021/09/09 00:03:40;;;;;;;18.38;11.32;;;14.90;99.90;;;;;;5037863;28;20091;-72
2021/09/09 00:06:05;;;;;;;18.75;10.85;;;14.80;99.90;;;;;;5038395;28;20108;-72
2021/09/09 00:08:31;;;;;;;16.92;10.05;;;14.80;99.90;;;;;;5045637;28;20434;-72
2021/09/09 00:10:56;;;;;;;19.48;11.55;;;14.80;99.90;;;;;;5033647;28;20573;-72
2021/09/09 00:13:22;;;;;;;18.75;10.73;;;14.70;99.90;;;;;;5041244;28;21038;-72
2021/09/09 00:15:47;;;;;;;20.23;11.25;;;14.70;99.90;;;;;;5044961;28;20056;-72
2021/09/09 00:18:14;;;;;;;21.08;11.27;;;14.70;99.90;;;;;;5050644;28;20423;-72
2021/09/09 00:20:39;;;;;;;16.80;11.25;;;14.60;99.90;;;;;;5035789;28;20586;-72
2021/09/09 00:23:05;;;;;;;20.38;11.30;;;14.70;99.90;;;;;;5043751;28;20071;-72
2021/09/09 00:25:31;;;;;;;18.33;11.32;;;14.60;99.90;;;;;;5047801;28;20021;-72
2021/09/09 00:27:56;;;;;;;17.58;11.02;;;14.60;99.90;;;;;;5046248;28;20025;-72
2021/09/09 00:30:22;;;;;;;17.13;10.77;;;14.60;99.90;;;;;;5045666;28;20033;-73
2021/09/09 00:32:47;;;;;;;19.77;11.00;;;14.50;99.90;;;;;;5048296;28;20029;-72
2021/09/09 00:35:13;;;;;;;20.50;11.48;;;14.50;99.90;;;;;;5042493;28;20029;-72
2021/09/09 00:37:38;;;;;;;18.80;11.70;;;14.50;99.90;;;;;;5049365;28;20036;-73
2021/09/09 00:40:04;;;;;;;19.98;12.60;;;14.50;99.90;;;;;;5041007;28;20036;-72
2021/09/09 00:42:30;;;;;;;17.60;10.90;;;14.40;99.90;;;;;;5044680;28;20118;-72
2021/09/09 00:44:55;;;;;;;17.00;10.98;;;14.40;99.90;;;;;;5047234;28;20482;-72
2021/09/09 00:47:21;;;;;;;15.90;10.45;;;14.40;99.90;;;;;;5045319;28;20021;-72
2021/09/09 00:49:46;;;;;;;16.13;10.63;;;14.30;99.90;;;;;;5037266;28;20036;-72
2021/09/09 00:52:14;;;;;;;18.88;10.90;;;14.30;99.90;;;;;;5047115;28;20045;-73
2021/09/09 00:54:41;;;;;;;18.13;11.55;;;14.30;99.90;;;;;;5045222;28;20095;-73
2021/09/09 00:57:06;;;;;;;18.13;10.52;;;14.30;99.90;;;;;;5047993;28;20479;-72
2021/09/09 00:59:33;;;;;;;18.13;10.30;;;14.20;99.90;;;;;;5037086;28;20033;-72
2021/09/09 01:02:00;;;;;;;16.95;10.25;;;14.20;99.90;;;;;;5048465;28;20025;-72
2021/09/09 01:04:25;;;;;;;15.35;10.52;;;14.20;99.90;;;;;;5046737;28;20548;-72
2021/09/09 01:06:51;;;;;;;15.68;10.13;;;14.20;99.90;;;;;;5049106;28;20025;-72
2021/09/09 01:09:17;;;;;;;16.50;10.68;;;14.10;99.90;;;;;;5042261;28;20277;-72
2021/09/09 01:11:43;;;;;;;19.25;10.23;;;14.10;99.90;;;;;;5047823;28;20246;-72
2021/09/09 01:14:11;;;;;;;21.90;10.70;;;14.10;99.90;;;;;;5044654;28;20064;-72
2021/09/09 01:16:38;;;;;;;16.60;10.13;;;14.10;99.90;;;;;;5042392;28;20498;-72
2021/09/09 01:19:04;;;;;;;19.13;10.45;;;14.00;99.90;;;;;;5040830;28;20061;-72
2021/09/09 01:21:30;;;;;;;23.15;11.27;;;14.00;99.90;;;;;;5050347;28;20083;-72
2021/09/09 01:23:58;;;;;;;16.95;10.10;;;14.00;99.90;;;;;;5050124;28;20032;-71
2021/09/09 01:26:27;;;;;;;18.13;10.98;;;14.00;99.90;;;;;;5048647;28;20028;-71
2021/09/09 01:28:53;;;;;;;16.33;10.02;;;14.00;99.90;;;;;;5048554;28;20462;-71
2021/09/09 01:31:19;;;;;;;17.20;9.65;;;14.00;99.90;;;;;;5047798;28;20052;-71
2021/09/09 01:33:44;;;;;;;17.85;9.77;;;13.90;99.90;;;;;;5040217;28;20030;-72
2021/09/09 01:36:10;;;;;;;17.33;10.43;;;13.90;99.90;;;;;;5041551;28;20064;-71
2021/09/09 01:38:35;;;;;;;16.45;9.95;;;13.80;99.90;;;;;;5045206;28;20582;-71
2021/09/09 01:41:01;;;;;;;16.85;9.73;;;13.80;99.90;;;;;;5042549;28;20390;-71
2021/09/09 01:43:26;;;;;;;16.80;10.35;;;13.80;99.90;;;;;;5046067;28;20056;-72
2021/09/09 01:45:52;;;;;;;17.75;9.35;;;13.80;99.90;;;;;;5050192;28;20013;-72
2021/09/09 01:48:17;;;;;;;18.00;10.27;;;13.80;99.90;;;;;;5047337;28;20075;-72
2021/09/09 01:50:43;;;;;;;15.93;10.02;;;13.70;99.90;;;;;;5048064;28;20049;-71
2021/09/09 01:53:08;;;;;;;15.45;9.23;;;13.70;99.90;;;;;;5047470;28;20025;-71
2021/09/09 01:55:34;;;;;;;16.75;9.40;;;13.70;99.90;;;;;;5048251;28;20376;-72
2021/09/09 01:57:59;;;;;;;16.75;9.73;;;13.70;99.90;;;;;;5045006;28;20487;-71
2021/09/09 02:00:25;;;;;;;18.17;10.38;;;13.70;99.90;;;;;;5048035;28;20724;-71
2021/09/09 02:02:50;;;;;;;22.33;9.73;;;13.70;99.90;;;;;;5042796;28;20048;-72
2021/09/09 02:05:16;;;;;;;17.85;10.07;;;13.60;99.90;;;;;;5047815;28;20025;-72
2021/09/09 02:07:41;;;;;;;18.30;10.80;;;13.60;99.90;;;;;;5045007;28;20035;-72
2021/09/09 02:10:08;;;;;;;17.08;9.98;;;13.60;99.90;;;;;;5048791;28;20386;-72
2021/09/09 02:12:34;;;;;;;18.58;9.30;;;13.60;99.90;;;;;;5041512;28;20029;-72
2021/09/09 02:15:00;;;;;;;19.25;10.50;;;13.50;99.90;;;;;;5040826;28;20448;-72
2021/09/09 02:17:26;;;;;;;16.77;9.73;;;13.50;99.90;;;;;;5047527;28;20159;-71
2021/09/09 02:19:51;;;;;;;18.00;10.00;;;13.50;99.90;;;;;;5044038;28;20040;-71
2021/09/09 02:22:17;;;;;;;18.77;9.90;;;13.40;99.90;;;;;;5039880;28;20515;-71
2021/09/09 02:24:46;;;;;;;19.08;10.88;;;13.40;99.90;;;;;;5047050;28;20116;-72
2021/09/09 02:27:15;;;;;;;16.30;9.77;;;13.40;99.90;;;;;;5037379;28;20067;-71
2021/09/09 02:29:42;;;;;;;13.68;8.95;;;13.30;99.90;;;;;;5048241;28;20031;-72
2021/09/09 02:32:08;;;;;;;17.23;9.98;;;13.30;99.90;;;;;;5036520;28;20025;-72
2021/09/09 02:34:34;;;;;;;17.33;9.77;;;13.30;99.90;;;;;;5043243;28;20037;-71
2021/09/09 02:36:59;;;;;;;17.10;10.20;;;13.30;99.90;;;;;;5042882;28;20025;-72
2021/09/09 02:39:25;;;;;;;17.35;9.60;;;13.30;99.90;;;;;;5041868;28;20120;-71
2021/09/09 02:41:50;;;;;;;16.10;10.02;;;13.30;99.90;;;;;;5035766;28;20041;-71
2021/09/09 02:44:16;;;;;;;19.20;10.15;;;13.20;99.90;;;;;;5043402;28;20413;-71
2021/09/09 02:46:41;;;;;;;13.88;9.18;;;13.30;99.90;;;;;;5048327;28;20499;-71
2021/09/09 02:49:07;;;;;;;16.73;9.85;;;13.20;99.90;;;;;;5048320;28;20035;-71
2021/09/09 02:51:32;;;;;;;14.27;9.52;;;13.10;99.90;;;;;;5047444;28;20048;-72
2021/09/09 02:53:58;;;;;;;16.60;9.68;;;13.10;99.90;;;;;;5047648;28;20722;-71
2021/09/09 02:56:23;;;;;;;15.65;9.57;;;13.10;99.90;;;;;;5044954;28;20036;-72
2021/09/09 02:58:49;;;;;;;16.70;9.75;;;13.10;99.90;;;;;;5048697;28;20017;-72
2021/09/09 03:01:14;;;;;;;17.58;9.63;;;13.10;99.90;;;;;;5044765;28;20395;-72
2021/09/09 03:03:40;;;;;;;18.25;9.45;;;13.10;99.90;;;;;;5045691;28;20033;-72
2021/09/09 03:06:06;;;;;;;17.08;10.18;;;13.00;99.90;;;;;;5044180;28;20021;-71
2021/09/09 03:08:32;;;;;;;16.77;9.77;;;13.00;99.90;;;;;;5044386;28;20026;-72
2021/09/09 03:10:59;;;;;;;15.43;9.27;;;13.00;99.90;;;;;;5041447;28;20481;-72
2021/09/09 03:13:25;;;;;;;15.55;9.63;;;13.00;99.90;;;;;;5041737;28;20036;-72
2021/09/09 03:15:50;;;;;;;16.63;9.82;;;12.90;99.90;;;;;;5041521;28;20025;-72
2021/09/09 03:18:16;;;;;;;18.92;9.52;;;12.90;99.90;;;;;;5038540;28;20052;-72
2021/09/09 03:20:41;;;;;;;16.00;9.40;;;12.90;99.90;;;;;;5040846;28;20025;-72
2021/09/09 03:23:07;;;;;;;15.40;9.07;;;12.80;99.90;;;;;;5047138;28;20029;-72
2021/09/09 03:25:32;;;;;;;15.60;9.43;;;12.90;99.90;;;;;;5046873;28;20542;-72
2021/09/09 03:27:58;;;;;;;17.13;10.05;;;12.80;99.90;;;;;;5048750;28;20094;-72
2021/09/09 03:30:24;;;;;;;16.00;9.18;;;12.80;99.90;;;;;;5047154;28;20029;-72
2021/09/09 03:32:50;;;;;;;13.38;8.88;;;12.80;99.90;;;;;;5039030;28;20048;-72
2021/09/09 03:35:15;;;;;;;16.75;10.27;;;12.70;99.90;;;;;;5041064;28;20037;-72
2021/09/09 03:37:41;;;;;;;17.35;9.55;;;12.70;99.90;;;;;;5046123;28;20037;-72
2021/09/09 03:40:07;;;;;;;17.67;9.68;;;12.70;99.90;;;;;;5044715;28;20024;-71
2021/09/09 03:42:32;;;;;;;15.35;10.13;;;12.60;99.90;;;;;;5042930;28;20032;-71
2021/09/09 03:44:58;;;;;;;15.35;8.93;;;12.60;99.90;;;;;;5041493;28;20016;-71
2021/09/09 03:47:23;;;;;;;13.65;8.88;;;12.60;99.90;;;;;;5049131;28;20025;-72
2021/09/09 03:49:49;;;;;;;16.00;9.27;;;12.60;99.90;;;;;;5044584;28;20076;-72
2021/09/09 03:52:14;;;;;;;14.32;9.25;;;12.60;99.90;;;;;;5047823;28;20048;-72
2021/09/09 03:54:40;;;;;;;16.92;8.77;;;12.60;99.90;;;;;;5044396;28;20036;-72
2021/09/09 03:57:05;;;;;;;15.23;8.75;;;12.50;99.90;;;;;;5044315;28;20025;-72
2021/09/09 03:59:31;;;;;;;15.63;8.82;;;12.50;99.90;;;;;;5048408;28;20029;-72
2021/09/09 04:01:56;;;;;;;19.00;9.35;;;12.50;99.90;;;;;;5045880;28;20028;-72
2021/09/09 04:04:22;;;;;;;15.02;9.00;;;12.50;99.90;;;;;;5043825;28;20479;-71
2021/09/09 04:06:47;;;;;;;19.45;10.20;;;12.50;99.90;;;;;;5042345;28;20636;-72
2021/09/09 04:09:13;;;;;;;15.70;10.13;;;12.40;99.90;;;;;;5045266;28;20128;-71
2021/09/09 04:11:41;;;;;;;15.43;8.77;;;12.40;99.90;;;;;;5043091;28;20028;-72
2021/09/09 04:14:07;;;;;;;16.75;9.60;;;12.40;99.90;;;;;;5042565;28;20387;-72
2021/09/09 04:16:32;;;;;;;16.27;9.32;;;12.40;99.90;;;;;;5046312;28;20047;-72
2021/09/09 04:19:04;;;;;;;15.95;9.35;;;12.40;99.90;;;;;;5048561;28;20017;-71
2021/09/09 04:21:29;;;;;;;;;;;12.30;99.90;;;;;;5047025;28;20361;-72
2021/09/09 04:23:55;;;;;;;14.82;8.77;;;12.40;99.90;;;;;;5041144;28;19943;-72
2021/09/09 04:26:20;;;;;;;16.42;9.02;;;12.30;99.90;;;;;;5041162;28;20675;-72
2021/09/09 04:28:45;;;;;;;12.77;8.32;;;12.30;99.90;;;;;;5036222;28;20029;-72
2021/09/09 04:31:11;;;;;;;18.17;9.25;;;12.30;99.90;;;;;;5045943;28;20021;-71
2021/09/09 04:33:36;;;;;;;14.00;9.20;;;12.20;99.90;;;;;;5047555;28;20037;-72
2021/09/09 04:36:02;;;;;;;14.90;8.45;;;12.30;99.90;;;;;;5047132;28;20037;-72
2021/09/09 04:38:28;;;;;;;15.20;9.52;;;12.20;99.90;;;;;;5040478;28;20037;-72
2021/09/09 04:40:53;;;;;;;16.55;9.35;;;12.20;99.90;;;;;;5040042;28;20156;-71
2021/09/09 04:43:18;;;;;;;13.70;8.60;;;12.20;99.90;;;;;;5040063;28;20057;-72
2021/09/09 04:45:44;;;;;;;17.20;9.77;;;12.20;99.90;;;;;;5046091;28;20025;-72
2021/09/09 04:48:09;;;;;;;15.70;8.85;;;12.20;99.90;;;;;;5043693;28;20547;-72
2021/09/09 04:50:35;;;;;;;15.70;8.90;;;12.20;99.90;;;;;;5046924;28;20440;-71
2021/09/09 04:53:00;;;;;;;14.27;8.65;;;12.20;99.90;;;;;;5040062;28;20036;-72
2021/09/09 04:55:26;;;;;;;17.80;8.52;;;12.20;99.90;;;;;;5039869;28;20029;-72
2021/09/09 04:57:51;;;;;;;13.02;8.65;;;12.20;99.90;;;;;;5039473;28;20067;-72
2021/09/09 05:00:17;;;;;;;16.27;8.93;;;12.20;99.90;;;;;;5044022;28;20124;-71
2021/09/09 05:02:42;;;;;;;12.45;8.38;;;12.20;99.90;;;;;;5042719;28;20025;-72
2021/09/09 05:05:09;;;;;;;19.35;9.43;;;12.20;99.90;;;;;;5041993;28;20021;-72
2021/09/09 05:07:35;;;;;;;17.25;9.25;;;12.20;99.90;;;;;;5040948;28;20021;-71
2021/09/09 05:10:01;;;;;;;15.23;8.95;;;12.20;99.90;;;;;;5043726;28;20479;-71
2021/09/09 05:12:27;;;;;;;14.88;8.93;;;12.20;99.90;;;;;;5041431;28;20025;-69
2021/09/09 05:14:52;;;;;;;15.98;9.98;;;12.20;99.90;;;;;;5031852;28;20029;-69
2021/09/09 05:17:18;;;;;;;17.65;9.73;;;12.20;99.90;;;;;;5041775;28;20032;-71
2021/09/09 05:19:43;;;;;;;17.73;9.68;;;12.20;99.90;;;;;;5043964;28;20055;-71
2021/09/09 05:22:08;;;;;;;16.17;9.73;;;12.20;99.90;;;;;;5043794;28;20056;-71
2021/09/09 05:24:34;;;;;;;19.63;9.35;;;12.20;99.90;;;;;;5052249;28;20518;-72
2021/09/09 05:27:00;;;;;;;18.48;9.32;;;12.20;99.90;;;;;;5041743;28;20021;-71
2021/09/09 05:29:25;;;;;;;15.50;9.55;;;12.20;99.90;;;;;;5040202;28;20033;-73
2021/09/09 05:31:50;;;;;;;18.77;10.02;;;12.20;99.90;;;;;;5045274;28;20024;-74
2021/09/09 05:34:16;;;;;;;16.13;10.15;;;12.20;99.90;;;;;;5045720;28;20020;-76
2021/09/09 05:36:41;;;;;;;16.40;9.15;;;12.30;99.90;;;;;;5041821;28;20025;-73
2021/09/09 05:39:07;;;;;;;13.88;8.93;;;12.30;99.90;;;;;;5039642;28;20032;-77
2021/09/09 05:41:32;;;;;;;18.40;9.15;;;12.30;99.90;;;;;;5045905;28;20025;-72
2021/09/09 05:43:58;;;;;;;17.13;9.52;;;12.30;99.90;;;;;;5042171;28;20067;-72
2021/09/09 05:46:23;;;;;;;14.45;9.05;;;12.40;99.90;;;;;;5040957;28;20396;-73
2021/09/09 05:48:49;;;;;;;17.08;9.80;;;12.40;99.90;;;;;;5052301;28;20033;-73
2021/09/09 05:51:14;;;;;;;15.07;9.32;;;12.40;99.90;;;;;;5051055;28;20192;-71
2021/09/09 05:53:40;;;;;;;15.27;9.95;;;12.50;99.90;;;;;;5041806;28;20086;-72
2021/09/09 05:56:05;;;;;;;16.02;9.80;;;12.50;99.90;;;;;;5039285;28;20031;-71
2021/09/09 05:58:31;;;;;;;15.10;9.63;;;12.60;99.90;;;;;;5041857;28;20128;-71
2021/09/09 06:00:57;;;;;;;17.30;9.98;;;12.60;99.90;;;;;;5039594;28;20037;-71
2021/09/09 06:03:40;;;;;;;19.92;10.40;;;12.60;99.90;;;;;;5040155;28;20068;-71
2021/09/09 06:06:06;;;;;;;15.55;9.55;;;12.70;99.90;;;;;;5044708;28;20102;-73
2021/09/09 06:08:32;;;;;;;14.88;9.25;;;12.70;99.90;;;;;;5049014;28;20029;-73
2021/09/09 06:10:58;;;;;;;16.75;10.35;;;12.80;99.90;;;;;;5042459;28;20091;-73
2021/09/09 06:13:24;;;;;;;18.35;10.40;;;12.80;99.90;;;;;;5038745;28;20037;-73
2021/09/09 06:15:49;;;;;;;17.13;10.05;;;12.90;99.90;;;;;;5042188;28;20049;-73
2021/09/09 06:18:15;;;;;;;23.10;11.70;;;12.90;99.90;;;;;;5046303;28;20028;-72
2021/09/09 06:20:40;;;;;;;16.75;10.02;;;13.00;99.90;;;;;;5047032;28;20059;-74
2021/09/09 06:23:06;;;;;;;19.35;10.38;;;13.00;99.90;;;;;;5050923;28;20163;-73
2021/09/09 06:25:31;;;;;;;16.70;9.95;;;13.10;99.90;;;;;;5049304;28;20544;-73
2021/09/09 06:27:57;;;;;;;20.80;10.82;;;13.20;99.90;;;;;;5047963;28;20025;-74
2021/09/09 06:30:22;;;;;;;20.45;10.60;;;13.20;99.90;;;;;;5051988;28;20021;-73
2021/09/09 06:32:48;;;;;;;17.60;8.95;;;13.30;99.90;;;;;;5048277;28;20083;-73
2021/09/09 06:35:13;;;;;;;14.65;9.50;;;13.30;99.90;;;;;;5047196;28;20047;-72
2021/09/09 06:37:39;;;;;;;22.05;9.75;;;13.40;99.90;;;;;;5049553;28;20017;-73
2021/09/09 06:40:06;;;;;;;14.02;8.85;;;13.50;99.90;;;;;;5047176;28;20085;-71
2021/09/09 06:42:35;;;;;;;15.73;8.77;;;13.60;99.90;;;;;;5047516;28;20034;-71
2021/09/09 06:45:00;;;;;;;20.83;8.23;;;13.60;99.90;;;;;;5048705;28;20032;-72
2021/09/09 06:47:30;;;;;;;16.05;8.15;;;13.70;99.90;;;;;;5049072;28;20033;-72
2021/09/09 06:49:55;;;;;;;15.15;7.88;;;13.80;99.90;;;;;;5048077;28;20044;-71
2021/09/09 06:52:21;;;;;;;18.30;7.50;;;13.90;99.90;;;;;;5049987;28;20103;-72
2021/09/09 06:54:46;;;;;;;13.63;7.05;;;14.00;99.90;;;;;;5047516;28;20131;-71
2021/09/09 06:57:12;;;;;;;13.48;7.90;;;14.20;99.90;;;;;;5048409;28;20044;-71
2021/09/09 06:59:37;;;;;;;21.25;7.05;;;14.30;99.90;;;;;;5043963;28;20033;-72
2021/09/09 07:02:03;;;;;;;15.38;7.28;;;14.40;99.90;;;;;;5048323;28;20040;-72
2021/09/09 07:04:28;;;;;;;12.07;6.50;;;14.50;99.90;;;;;;5050195;28;20032;-71
2021/09/09 07:06:54;;;;;;;13.65;6.70;;;14.50;99.90;;;;;;5048211;28;20025;-72
2021/09/09 07:09:19;;;;;;;10.13;6.57;;;14.60;99.90;;;;;;5051561;28;20025;-71
2021/09/09 07:11:45;;;;;;;14.05;7.60;;;14.70;99.90;;;;;;5048927;28;20025;-69
2021/09/09 07:14:10;;;;;;;12.02;7.38;;;14.80;99.90;;;;;;5049628;28;20387;-72
2021/09/09 07:16:38;;;;;;;11.82;6.53;;;14.80;99.90;;;;;;5046807;28;20021;-75
2021/09/09 07:19:07;;;;;;;15.63;6.32;;;15.00;99.90;;;;;;5045247;28;20036;-69
2021/09/09 07:21:33;;;;;;;15.20;7.30;;;15.10;99.90;;;;;;5045595;28;20565;-69
2021/09/09 07:24:02;;;;;;;15.32;7.15;;;15.20;99.90;;;;;;5046721;28;20116;-70
2021/09/09 07:26:29;;;;;;;12.02;6.68;;;15.20;99.90;;;;;;5049609;28;20021;-71
2021/09/09 07:28:55;;;;;;;10.35;6.38;;;15.30;99.90;;;;;;5047444;28;20033;-75
2021/09/09 07:31:20;;;;;;;9.68;6.13;;;15.40;99.90;;;;;;5041219;28;20021;-73
2021/09/09 07:33:46;;;;;;;11.13;5.95;;;15.50;99.90;;;;;;5036414;28;20032;-73
2021/09/09 07:36:11;;;;;;;9.90;5.80;;;15.60;99.90;;;;;;5046625;28;20052;-73
2021/09/09 07:38:37;;;;;;;14.25;6.30;;;15.70;99.90;;;;;;5043054;28;20121;-73
2021/09/09 07:41:03;;;;;;;13.18;5.80;;;15.70;99.90;;;;;;5044911;28;20622;-74
2021/09/09 07:43:32;;;;;;;11.00;6.18;;;15.90;99.90;;;;;;5031237;28;20033;-73
2021/09/09 07:45:59;;;;;;;7.97;5.50;;;16.00;99.90;;;;;;5047378;28;20116;-72
2021/09/09 07:48:28;;;;;;;15.90;6.03;;;16.10;99.90;;;;;;5049687;28;20087;-73
2021/09/09 07:50:54;;;;;;;11.80;5.80;;;16.30;99.90;;;;;;5039664;28;20407;-73
2021/09/09 07:53:19;;;;;;;16.20;6.28;;;16.40;99.90;;;;;;5034537;28;20110;-73
2021/09/09 07:55:44;;;;;;;10.90;6.03;;;16.50;99.80;;;;;;5039876;28;20037;-73
2021/09/09 07:58:10;;;;;;;14.95;6.72;;;16.60;99.90;;;;;;5045683;28;20036;-72
2021/09/09 08:00:36;;;;;;;8.07;5.60;;;16.60;99.90;;;;;;5045782;28;20087;-73
2021/09/09 08:03:01;;;;;;;12.43;5.82;;;16.70;99.90;;;;;;5040784;28;20079;-73
2021/09/09 08:05:29;;;;;;;9.98;6.47;;;16.70;99.90;;;;;;5040525;28;20495;-73
2021/09/09 08:07:55;;;;;;;13.30;5.47;;;16.80;99.90;;;;;;5037021;28;20029;-73
2021/09/09 08:10:20;;;;;;;10.77;6.00;;;16.80;99.90;;;;;;5043041;28;20021;-73
2021/09/09 08:12:46;;;;;;;14.05;6.07;;;16.90;99.90;;;;;;5043948;28;20055;-73
2021/09/09 08:15:13;;;;;;;9.35;5.50;;;16.90;99.80;;;;;;5046695;28;20450;-73
2021/09/09 08:17:39;;;;;;;14.40;6.00;;;17.00;99.90;;;;;;5042124;28;20033;-73
2021/09/09 08:20:06;;;;;;;9.02;5.32;;;17.10;99.90;;;;;;5049022;28;20025;-72
2021/09/09 08:22:32;;;;;;;9.88;5.72;;;17.20;99.90;;;;;;5047553;28;20072;-73
2021/09/09 08:24:58;;;;;;;10.20;5.45;;;17.30;99.90;;;;;;5038107;28;20483;-73
2021/09/09 08:27:23;;;;;;;8.57;5.55;;;17.40;98.60;;;;;;5043701;28;20025;-72
2021/09/09 08:29:49;;;;;;;8.75;5.25;;;17.50;97.80;;;;;;5054704;28;20485;-73
2021/09/09 08:32:15;;;;;;;10.35;5.05;;;17.50;97.40;;;;;;5042842;28;20380;-73
2021/09/09 08:34:40;;;;;;;8.43;5.45;;;17.60;98.90;;;;;;5031921;28;20032;-73
2021/09/09 08:37:06;;;;;;;10.77;5.68;;;17.80;94.90;;;;;;5042212;28;20024;-73
2021/09/09 08:39:32;;;;;;;10.90;5.80;;;17.80;94.70;;;;;;5044869;28;20562;-73
2021/09/09 08:41:57;;;;;;;7.60;4.95;;;17.90;96.90;;;;;;5047608;28;20033;-73
2021/09/09 08:44:23;;;;;;;9.02;5.28;;;17.90;96.00;;;;;;5040780;28;20044;-73
2021/09/09 08:46:51;;;;;;;8.52;4.97;;;18.00;96.10;;;;;;5047045;28;20103;-73
2021/09/09 08:49:42;;;;;;;9.02;5.13;;;18.00;95.60;;;;;;5045095;28;20022;-72
2021/09/09 08:52:11;;;;;;;10.27;4.97;;;18.20;95.40;;;;;;5035665;28;20047;-72
2021/09/09 08:54:36;;;;;;;12.77;5.38;;;18.30;95.80;;;;;;5033140;28;20064;-73
2021/09/09 08:57:02;;;;;;;9.88;5.00;;;18.30;93.50;;;;;;5041543;28;20497;-73
2021/09/09 08:59:27;;;;;;;9.68;5.30;;;18.40;95.40;;;;;;5044325;28;20079;-73
2021/09/09 09:02:09;;;;;;;9.05;5.35;;;18.60;95.00;;;;;;5044730;28;20033;-72
2021/09/09 09:04:37;;;;;;;8.48;5.03;;;18.60;92.30;;;;;;5041225;28;20035;-72
2021/09/09 09:07:04;;;;;;;6.95;4.72;;;18.70;93.30;;;;;;5035990;28;20063;-72
2021/09/09 09:09:36;;;;;;;8.60;5.20;;;18.70;94.00;;;;;;5035900;28;20022;-73
2021/09/09 09:12:09;;;;;;;10.07;5.10;;;18.80;94.20;;;;;;5043807;28;20074;-73
2021/09/09 09:14:35;;;;;;;8.60;5.50;;;19.10;94.40;;;;;;5041405;28;20032;-73
2021/09/09 09:17:04;;;;;;;6.97;4.75;;;19.00;92.90;;;;;;5046950;28;20028;-73
2021/09/09 09:19:33;;;;;;;13.35;5.20;;;19.20;92.70;;;;;;5040323;28;20367;-73
2021/09/09 09:22:05;;;;;;;9.25;5.00;;;19.10;93.40;;;;;;5030870;28;20028;-72
2021/09/09 09:24:34;;;;;;;8.68;5.45;;;19.20;92.10;;;;;;5044201;28;20032;-73
2021/09/09 09:27:11;;;;;;;7.90;4.90;;;19.40;92.60;;;;;;5043965;28;20021;-73
2021/09/09 09:29:38;;;;;;;10.05;4.75;;;19.50;91.50;;;;;;5048632;28;20022;-73
2021/09/09 09:32:12;;;;;;;6.10;4.43;;;19.50;90.50;;;;;;5047470;28;20056;-73
2021/09/09 09:34:38;;;;;;;9.32;5.00;;;19.50;91.80;;;;;;5045278;28;20399;-73
2021/09/09 09:37:04;;;;;;;7.68;4.80;;;19.60;90.10;;;;;;5047464;28;20040;-73
2021/09/09 09:39:29;;;;;;;10.40;4.85;;;19.70;91.10;;;;;;5056925;28;20033;-73
2021/09/09 09:41:55;;;;;;;10.30;4.93;;;19.70;91.00;;;;;;5047961;28;20037;-73
2021/09/09 09:44:33;;;;;;;7.82;4.57;;;19.90;91.80;;;;;;5040379;28;20025;-73
2021/09/09 09:47:21;;;;;;;8.57;5.07;;;19.90;90.30;;;;;;5052942;28;20028;-73
2021/09/09 09:49:54;;;;;;;5.32;4.35;;;20.10;88.60;;;;;;5048607;28;20028;-73
2021/09/09 09:52:26;;;;;;;11.75;5.35;;;20.30;88.70;;;;;;5040601;28;20520;-72
2021/09/09 09:54:55;;;;;;;7.50;4.88;;;20.20;90.60;;;;;;5049470;28;20040;-73
2021/09/09 09:57:23;;;;;;;7.03;4.45;;;20.40;88.20;;;;;;5048389;28;20047;-73
2021/09/09 09:59:48;;;;;;;6.35;4.30;;;20.30;90.30;;;;;;5051968;28;20032;-73
2021/09/09 10:02:14;;;;;;;5.97;3.90;;;20.40;92.30;;;;;;5042284;28;20022;-73
2021/09/09 10:04:42;;;;;;;8.07;4.45;;;20.70;92.00;;;;;;5041222;28;20025;-73
2021/09/09 10:07:10;;;;;;;10.70;4.70;;;20.60;90.90;;;;;;5051376;28;20053;-73
2021/09/09 10:09:37;;;;;;;6.05;4.10;;;20.80;91.00;;;;;;5044693;28;20033;-72
2021/09/09 10:12:03;;;;;;;6.97;4.28;;;20.90;90.00;;;;;;5056499;28;20061;-71
2021/09/09 10:14:28;;;;;;;7.53;4.40;;;21.20;90.50;;;;;;5052839;28;20060;-71
2021/09/09 10:16:57;;;;;;;8.23;5.05;;;21.00;91.60;;;;;;5047710;28;20029;-71
2021/09/09 10:19:30;;;;;;;11.52;5.57;;;21.20;89.80;;;;;;5045245;28;20491;-71
2021/09/09 10:22:11;;;;;;;6.97;4.68;;;21.30;89.10;;;;;;5040606;28;20031;-71
2021/09/09 10:24:41;;;;;;;9.77;5.07;;;21.60;90.50;;;;;;5041650;28;20022;-72
2021/09/09 10:27:24;;;;;;;11.77;5.30;;;21.50;85.70;;;;;;5042776;28;20025;-71
2021/09/09 10:30:03;;;;;;;11.30;4.60;;;21.70;84.00;;;;;;5045456;28;20032;-71
2021/09/09 10:32:29;;;;;;;7.50;5.03;;;21.80;82.80;;;;;;5047873;28;20044;-71
2021/09/09 10:35:20;;;;;;;7.18;4.63;;;22.10;79.40;;;;;;5044849;28;20029;-71
2021/09/09 10:37:52;;;;;;;8.63;4.63;;;22.10;80.20;;;;;;5043371;28;20474;-72
2021/09/09 10:40:38;;;;;;;8.38;4.95;;;22.40;79.80;;;;;;5050561;28;20033;-71
2021/09/09 10:43:12;;;;;;;9.48;4.93;;;22.30;75.80;;;;;;5050414;28;20108;-70
2021/09/09 10:45:45;;;;;;;8.15;4.85;;;22.50;74.70;;;;;;5051529;28;20029;-71
2021/09/09 10:48:21;;;;;;;6.00;4.15;;;22.50;78.20;;;;;;5052814;28;20029;-71
2021/09/09 10:51:00;;;;;;;13.90;5.10;;;22.70;78.10;;;;;;5040654;28;20037;-70
2021/09/09 10:53:36;;;;;;;7.53;4.47;;;22.80;71.40;;;;;;5042423;28;20029;-71
2021/09/09 10:56:15;;;;;;;9.50;4.13;;;23.00;76.20;;;;;;5044976;28;20033;-71
2021/09/09 10:58:42;;;;;;;6.03;4.45;;;23.00;75.80;;;;;;5041351;28;20037;-71
2021/09/09 11:01:08;;;;;;;5.57;4.00;;;23.00;76.60;;;;;;5050008;28;20033;-71
2021/09/09 11:03:48;;;;;;;8.13;4.35;;;23.10;75.60;;;;;;5049875;28;20025;-70
2021/09/09 11:06:20;;;;;;;5.55;4.03;;;23.30;76.40;;;;;;5048493;28;20063;-70
2021/09/09 11:08:48;;;;;;;11.40;4.45;;;23.40;73.50;;;;;;5049579;28;20114;-71
2021/09/09 11:11:25;;;;;;;8.18;5.18;;;23.70;70.90;;;;;;5049580;28;20154;-71
2021/09/09 11:14:04;;;;;;;7.43;4.95;;;23.60;73.40;;;;;;5049670;28;20021;-71
2021/09/09 11:16:32;;;;;;;9.25;4.22;;;23.90;71.40;;;;;;5034802;28;20036;-71
2021/09/09 11:18:58;;;;;;;6.38;4.45;;;24.10;69.60;;;;;;5036313;28;20109;-70
2021/09/09 11:21:28;;;;;;;5.75;3.97;;;24.20;70.10;;;;;;5047308;28;20155;-71
2021/09/09 11:24:08;;;;;;;8.80;4.93;;;24.40;69.80;;;;;;5050312;28;20032;-71
2021/09/09 11:26:35;;;;;;;6.30;4.65;;;24.70;62.50;;;;;;5048995;28;20025;-71
2021/09/09 11:29:02;;;;;;;7.53;4.25;;;25.00;61.50;;;;;;5050317;28;20159;-71
2021/09/09 11:31:29;;;;;;;6.65;4.55;;;25.30;63.40;;;;;;5049809;28;20028;-71
2021/09/09 11:34:02;;;;;;;6.15;4.00;;;25.60;60.60;;;;;;5049719;28;20562;-71
2021/09/09 11:36:36;;;;;;;4.97;4.35;;;26.10;63.70;;;;;;5049456;28;20064;-71
2021/09/09 11:39:05;;;;;;;8.18;4.63;;;26.20;62.40;;;;;;5049527;28;20025;-71
2021/09/09 11:41:32;;;;;;;6.72;4.00;;;26.60;61.70;;;;;;5049759;28;20049;-71
2021/09/09 11:44:00;;;;;;;5.47;3.78;;;26.60;62.00;;;;;;5050170;28;20056;-71
2021/09/09 11:46:32;;;;;;;6.97;4.80;;;27.10;61.60;;;;;;5048589;28;20033;-71
2021/09/09 11:49:03;;;;;;;6.18;3.83;;;27.50;57.80;;;;;;5044474;28;20170;-71
2021/09/09 11:51:33;;;;;;;6.40;4.00;;;27.90;59.70;;;;;;5048540;28;20507;-71
2021/09/09 11:53:58;;;;;;;8.93;4.50;;;28.10;59.00;;;;;;5053082;28;20104;-71
2021/09/09 11:56:24;;;;;;;9.70;4.03;;;28.10;57.70;;;;;;5053478;28;20602;-71
2021/09/09 11:58:50;;;;;;;4.95;3.85;;;28.50;57.60;;;;;;5047895;28;20029;-71
2021/09/09 12:01:16;;;;;;;7.43;4.28;;;28.70;58.20;;;;;;5049515;28;20506;-71
2021/09/09 12:03:46;;;;;;;5.55;4.47;;;28.90;60.10;;;;;;5049321;28;20025;-71
2021/09/09 12:06:12;;;;;;;;;;;29.40;58.70;;;;;;5049842;28;20043;-70
2021/09/09 12:08:43;;;;;;;8.70;4.68;;;29.90;57.00;;;;;;5046025;28;19909;-71
2021/09/09 12:11:11;;;;;;;6.82;4.43;;;30.40;55.10;;;;;;5046945;28;20032;-71
2021/09/09 12:13:39;;;;;;;6.30;4.90;;;30.50;54.60;;;;;;5047468;28;20029;-71
2021/09/09 12:16:15;;;;;;;7.07;4.20;;;30.80;53.00;;;;;;5042377;28;20029;-71
2021/09/09 12:18:46;;;;;;;7.32;4.68;;;31.10;56.40;;;;;;5046072;28;20037;-71
2021/09/09 12:21:18;;;;;;;7.80;4.65;;;31.50;52.10;;;;;;5042736;28;20052;-72
2021/09/09 12:24:07;;;;;;;7.05;4.88;;;31.90;53.70;;;;;;5034981;28;20037;-70
2021/09/09 12:26:34;;;;;;;6.00;5.03;;;32.00;50.00;;;;;;5043707;28;20408;-70
2021/09/09 12:29:20;;;;;;;6.05;5.03;;;32.40;51.60;;;;;;5044289;28;20102;-71
2021/09/09 12:31:46;;;;;;;8.75;5.38;;;32.90;48.50;;;;;;5039953;28;20068;-71
2021/09/09 12:34:17;;;;;;;7.43;4.80;;;33.00;46.40;;;;;;5048414;28;20110;-71
2021/09/09 12:36:50;;;;;;;6.07;4.47;;;33.30;45.60;;;;;;5048806;28;20033;-71
2021/09/09 12:39:19;;;;;;;7.13;4.72;;;33.50;44.70;;;;;;5041285;28;20061;-72